Time;durP1;ratioP1;P1;durP2;ratioP2;P2;SDS_P1;SDS_P2;PMS_P1;PMS_P2;Temp;Humidity;BMP_temperature;BMP_pressure;BME280_temperature;BME280_humidity;BME280_pressure;Samples;Min_cycle;Max_cycle;Signal;HPM_P1;HPM_P2
2022/07/10 00:01:23;;;;;;;4.13;2.78;;;;;;;14.30;86.85;99427.84;8427663;28;20434;-73
2022/07/10 00:05:25;;;;;;;3.15;2.80;;;;;;;14.25;87.17;99430.72;8424753;28;20431;-73
2022/07/10 00:09:27;;;;;;;6.28;2.72;;;;;;;14.28;87.16;99424.63;8428654;28;20040;-74
2022/07/10 00:13:28;;;;;;;3.63;2.83;;;;;;;14.22;87.52;99420.53;8427072;28;20076;-73
2022/07/10 00:17:29;;;;;;;5.03;3.00;;;;;;;14.20;87.63;99422.75;8422693;28;20056;-74
2022/07/10 00:21:30;;;;;;;5.22;2.88;;;;;;;14.14;88.11;99424.06;8427045;28;20040;-74
2022/07/10 00:25:31;;;;;;;8.02;3.22;;;;;;;14.05;88.44;99420.56;8416803;28;20526;-73
2022/07/10 00:29:32;;;;;;;4.03;2.70;;;;;;;13.92;89.16;99411.50;8425534;28;20059;-74
2022/07/10 00:33:33;;;;;;;6.90;3.10;;;;;;;13.86;89.41;99419.00;8422981;28;20083;-74
2022/07/10 00:37:36;;;;;;;6.18;3.42;;;;;;;13.79;89.53;99418.72;8388417;28;20043;-73
2022/07/10 00:41:37;;;;;;;8.20;3.10;;;;;;;13.72;89.84;99415.69;8426707;28;20443;-74
2022/07/10 00:45:38;;;;;;;9.70;3.35;;;;;;;13.66;89.82;99403.41;8426085;28;20044;-73
2022/07/10 00:49:39;;;;;;;9.85;2.92;;;;;;;13.64;90.45;99404.84;8424792;28;20126;-73
2022/07/10 00:53:40;;;;;;;4.63;2.78;;;;;;;13.58;90.69;99406.94;8371436;28;20051;-73
2022/07/10 00:57:41;;;;;;;5.50;3.20;;;;;;;13.50;90.61;99400.38;8380154;28;20135;-74
2022/07/10 01:01:43;;;;;;;5.22;2.50;;;;;;;13.41;90.76;99401.50;8426503;28;20064;-73
2022/07/10 01:05:44;;;;;;;3.70;2.20;;;;;;;13.30;91.23;99394.81;8408584;28;20121;-74
2022/07/10 01:09:45;;;;;;;6.70;2.72;;;;;;;13.27;90.96;99406.31;8422953;28;20499;-74
2022/07/10 01:13:46;;;;;;;6.07;2.55;;;;;;;13.22;91.24;99398.34;8425366;28;20059;-74
2022/07/10 01:17:48;;;;;;;4.50;2.80;;;;;;;13.17;91.27;99406.59;8373391;28;20406;-74
2022/07/10 01:21:49;;;;;;;4.00;2.85;;;;;;;13.09;91.42;99417.09;8385635;28;20055;-74
2022/07/10 01:25:50;;;;;;;5.80;2.92;;;;;;;13.03;91.09;99412.94;8386377;28;20039;-73
2022/07/10 01:29:53;;;;;;;5.13;3.00;;;;;;;12.99;91.44;99408.47;8424695;28;20096;-73
2022/07/10 01:33:55;;;;;;;6.78;3.60;;;;;;;12.94;91.28;99404.00;8406560;28;20048;-73
2022/07/10 01:37:56;;;;;;;11.52;4.10;;;;;;;12.89;91.44;99401.47;8420313;28;20516;-73
2022/07/10 01:41:57;;;;;;;8.50;3.20;;;;;;;12.82;91.61;99395.69;8433264;28;20388;-74
2022/07/10 01:45:58;;;;;;;8.30;3.13;;;;;;;12.79;91.90;99399.06;8432310;28;20044;-73
2022/07/10 01:50:00;;;;;;;6.20;3.30;;;;;;;12.76;92.00;99391.53;8424578;28;20553;-74
2022/07/10 01:54:01;;;;;;;5.15;3.35;;;;;;;12.76;92.15;99396.94;8421015;28;20475;-73
2022/07/10 01:58:03;;;;;;;7.78;2.92;;;;;;;12.80;92.06;99397.91;8378511;28;20552;-73
2022/07/10 02:02:03;;;;;;;4.43;2.92;;;;;;;12.81;92.02;99404.94;8430046;28;20047;-74
2022/07/10 02:06:05;;;;;;;8.80;3.15;;;;;;;12.79;92.19;99400.97;8427816;28;20036;-73
2022/07/10 02:10:06;;;;;;;5.03;3.70;;;;;;;12.77;92.44;99409.41;8410764;28;20052;-74
2022/07/10 02:14:08;;;;;;;6.43;3.55;;;;;;;12.84;92.45;99407.03;8430593;28;20454;-74
2022/07/10 02:18:09;;;;;;;9.10;3.40;;;;;;;12.88;92.51;99410.69;8431124;28;20462;-74
2022/07/10 02:22:10;;;;;;;8.88;3.28;;;;;;;12.93;92.69;99412.47;8431161;28;20427;-74
2022/07/10 02:26:11;;;;;;;6.80;3.30;;;;;;;12.96;93.14;99407.19;8389439;28;20055;-74
2022/07/10 02:30:12;;;;;;;6.18;2.90;;;;;;;12.97;93.29;99397.94;8430951;28;20059;-74
2022/07/10 02:34:14;;;;;;;8.00;3.20;;;;;;;12.99;92.97;99405.78;8424180;28;20044;-73
2022/07/10 02:38:15;;;;;;;6.22;3.22;;;;;;;13.02;92.76;99405.94;8430710;28;20495;-73
2022/07/10 02:42:16;;;;;;;6.85;2.88;;;;;;;13.05;92.73;99405.31;8411477;28;20076;-74
2022/07/10 02:46:17;;;;;;;5.88;3.20;;;;;;;13.14;92.05;99407.25;8422059;28;20048;-73
2022/07/10 02:50:18;;;;;;;9.30;3.08;;;;;;;13.10;91.80;99424.13;8407869;28;20059;-73
2022/07/10 02:54:19;;;;;;;7.32;2.47;;;;;;;13.04;91.78;99403.72;8424128;28;20052;-74
2022/07/10 02:58:20;;;;;;;7.30;2.90;;;;;;;12.94;91.74;99412.16;8420991;28;20071;-73
2022/07/10 03:02:21;;;;;;;5.68;2.60;;;;;;;12.92;91.59;99416.28;8427375;28;20056;-74
2022/07/10 03:06:22;;;;;;;6.55;2.55;;;;;;;12.92;91.38;99406.22;8430445;28;20086;-73
2022/07/10 03:10:23;;;;;;;7.72;2.83;;;;;;;12.88;91.25;99397.16;8421208;28;20036;-74
2022/07/10 03:14:24;;;;;;;9.88;2.45;;;;;;;12.83;91.03;99408.13;8423144;28;20062;-73
2022/07/10 03:18:25;;;;;;;7.97;2.42;;;;;;;12.83;90.90;99408.13;8367424;28;20056;-73
2022/07/10 03:22:26;;;;;;;6.63;2.22;;;;;;;12.85;90.64;99411.31;8368838;28;20066;-72
2022/07/10 03:26:29;;;;;;;6.93;2.40;;;;;;;12.91;89.94;99415.47;8369561;28;20525;-74
2022/07/10 03:30:30;;;;;;;11.52;2.30;;;;;;;12.98;89.38;99410.38;8366784;28;20044;-74
2022/07/10 03:34:32;;;;;;;4.20;1.98;;;;;;;12.94;88.98;99409.44;8372233;28;20052;-74
2022/07/10 03:38:33;;;;;;;9.18;2.42;;;;;;;12.95;88.75;99405.63;8359648;28;20106;-74
2022/07/10 03:42:34;;;;;;;11.60;2.40;;;;;;;12.89;88.89;99406.88;8372352;28;20086;-74
2022/07/10 03:46:35;;;;;;;5.65;2.05;;;;;;;12.82;89.25;99411.97;8359940;28;20139;-74
2022/07/10 03:50:36;;;;;;;10.30;2.50;;;;;;;12.80;89.22;99407.94;8426742;28;20048;-74
2022/07/10 03:54:37;;;;;;;5.47;1.95;;;;;;;12.82;89.03;99406.53;8384774;28;20040;-75
2022/07/10 03:58:38;;;;;;;8.38;1.92;;;;;;;12.91;88.46;99410.06;8427981;28;20059;-74
2022/07/10 04:02:39;;;;;;;14.65;2.47;;;;;;;13.13;88.58;99411.06;8425174;28;20459;-75
2022/07/10 04:06:40;;;;;;;8.02;2.17;;;;;;;13.22;87.81;99409.94;8429516;28;20094;-78
2022/07/10 04:10:41;;;;;;;7.25;2.03;;;;;;;13.26;86.99;99404.72;8425105;28;20148;-74
2022/07/10 04:14:42;;;;;;;6.85;2.13;;;;;;;13.31;86.46;99409.97;8427932;28;20071;-74
2022/07/10 04:18:43;;;;;;;11.43;1.98;;;;;;;13.37;85.99;99416.84;8416688;28;20050;-74
2022/07/10 04:22:44;;;;;;;8.00;2.08;;;;;;;13.43;84.54;99412.84;8426561;28;20044;-74
2022/07/10 04:26:45;;;;;;;10.32;1.65;;;;;;;13.46;83.05;99414.91;8426391;28;20071;-75
2022/07/10 04:30:46;;;;;;;6.75;1.83;;;;;;;13.51;83.18;99412.03;8411467;28;20080;-74
2022/07/10 04:34:47;;;;;;;7.53;1.92;;;;;;;13.55;82.79;99407.56;8427430;28;20051;-75
2022/07/10 04:38:48;;;;;;;9.85;1.58;;;;;;;13.59;82.06;99413.94;8426862;28;20051;-75
2022/07/10 04:42:49;;;;;;;11.10;1.60;;;;;;;13.58;82.11;99412.38;8405429;28;20040;-74
2022/07/10 04:46:50;;;;;;;6.35;1.52;;;;;;;13.59;81.96;99403.06;8427199;28;20147;-74
2022/07/10 04:50:54;;;;;;;5.45;1.55;;;;;;;13.57;81.72;99410.75;8390616;28;20126;-76
2022/07/10 04:54:55;;;;;;;10.68;2.10;;;;;;;13.62;80.76;99407.88;8422421;28;20059;-74
2022/07/10 04:58:56;;;;;;;8.98;1.65;;;;;;;13.66;81.07;99397.97;8388314;28;20131;-75
2022/07/10 05:02:57;;;;;;;21.27;2.83;;;;;;;13.69;80.78;99402.78;8426122;28;20135;-75
2022/07/10 05:06:58;;;;;;;10.88;1.55;;;;;;;13.71;81.01;99405.94;8418610;28;20051;-74
2022/07/10 05:10:59;;;;;;;10.25;1.65;;;;;;;13.76;80.30;99408.50;8420882;28;20481;-74
2022/07/10 05:15:03;;;;;;;11.48;1.67;;;;;;;13.82;80.35;99401.78;8418430;28;20055;-74
2022/07/10 05:19:04;;;;;;;10.65;1.83;;;;;;;13.82;79.99;99401.78;8425465;28;20504;-74
2022/07/10 05:23:05;;;;;;;8.23;1.40;;;;;;;13.92;79.62;99406.88;8425053;28;20146;-74
2022/07/10 05:27:06;;;;;;;7.25;1.90;;;;;;;13.99;79.31;99405.56;8420505;28;20126;-73
2022/07/10 05:31:08;;;;;;;10.85;2.38;;;;;;;14.06;78.82;99405.88;8424459;28;20495;-74
2022/07/10 05:35:09;;;;;;;9.15;2.05;;;;;;;14.16;78.64;99405.53;8338992;28;20093;-74
2022/07/10 05:39:10;;;;;;;15.07;2.00;;;;;;;14.27;78.44;99396.69;8415425;28;20441;-74
2022/07/10 05:43:11;;;;;;;6.50;1.75;;;;;;;14.38;77.70;99403.38;8383808;28;20060;-74
2022/07/10 05:47:13;;;;;;;8.27;2.08;;;;;;;14.37;77.05;99406.44;8383721;28;20044;-75
2022/07/10 05:51:14;;;;;;;5.13;1.70;;;;;;;14.38;76.44;99397.94;8413973;28;20528;-75
2022/07/10 05:55:15;;;;;;;7.60;2.03;;;;;;;14.46;75.86;99409.91;8410561;28;20105;-75
2022/07/10 05:59:16;;;;;;;5.47;1.50;;;;;;;14.46;75.60;99404.47;8415880;28;20044;-74
2022/07/10 06:03:21;;;;;;;10.07;1.73;;;;;;;14.37;74.46;99409.16;8394070;28;20448;-74
2022/07/10 06:07:22;;;;;;;13.88;1.80;;;;;;;14.26;74.78;99405.16;8413198;28;20068;-74
2022/07/10 06:11:23;;;;;;;6.75;1.77;;;;;;;14.34;74.51;99409.75;8415673;28;20383;-74
2022/07/10 06:15:24;;;;;;;6.30;1.40;;;;;;;14.38;74.21;99408.03;8401596;28;20070;-74
2022/07/10 06:19:25;;;;;;;6.72;1.88;;;;;;;14.45;73.45;99419.19;8400006;28;20139;-75
2022/07/10 06:23:26;;;;;;;8.60;1.98;;;;;;;14.45;72.27;99407.50;8402828;28;20074;-74
2022/07/10 06:27:27;;;;;;;8.43;1.50;;;;;;;14.60;72.34;99415.91;8404553;28;20148;-73
2022/07/10 06:31:29;;;;;;;11.75;1.77;;;;;;;14.76;71.07;99403.34;8391907;28;20070;-74
2022/07/10 06:35:30;;;;;;;13.65;1.50;;;;;;;14.71;70.49;99400.81;8367523;28;20126;-74
2022/07/10 06:39:36;;;;;;;5.63;1.50;;;;;;;14.84;69.92;99409.06;8366087;28;20048;-75
2022/07/10 06:43:36;;;;;;;5.00;1.20;;;;;;;14.92;69.73;99410.94;8416921;28;20055;-74
2022/07/10 06:47:55;;;;;;;12.52;1.50;;;;;;;14.96;69.17;99406.44;8423349;28;20047;-74
2022/07/10 06:51:56;;;;;;;5.43;1.63;;;;;;;14.94;69.48;99408.69;8424348;28;20143;-77
2022/07/10 06:55:58;;;;;;;9.23;1.40;;;;;;;15.07;68.11;99402.97;8403636;28;20043;-74
2022/07/10 06:59:58;;;;;;;7.38;1.30;;;;;;;15.06;68.26;99400.63;8430472;28;20125;-76
2022/07/10 07:03:59;;;;;;;6.47;1.20;;;;;;;14.96;68.88;99401.81;8424627;28;20392;-74
2022/07/10 07:08:00;;;;;;;7.75;1.27;;;;;;;14.80;68.44;99398.84;8422468;28;20065;-74
2022/07/10 07:12:02;;;;;;;8.13;1.45;;;;;;;14.73;68.92;99404.03;8375690;28;20052;-74
2022/07/10 07:16:06;;;;;;;9.48;1.60;;;;;;;14.82;69.03;99403.16;8428257;28;20411;-75
2022/07/10 07:24:28;;;;;;;6.45;1.30;;;;;;;15.01;67.82;99398.88;8429856;28;20051;-75
2022/07/10 07:28:29;;;;;;;7.93;1.30;;;;;;;15.13;68.57;99407.09;8426748;28;20047;-76
2022/07/10 07:32:30;;;;;;;7.30;1.40;;;;;;;15.45;68.18;99402.84;8374548;28;20040;-74
2022/07/10 07:36:32;;;;;;;5.55;1.10;;;;;;;15.43;65.90;99405.13;8424092;28;20089;-75
2022/07/10 07:40:33;;;;;;;7.97;1.10;;;;;;;15.36;65.65;99399.41;8421637;28;20418;-75
2022/07/10 07:44:34;;;;;;;6.85;1.27;;;;;;;15.19;66.71;99399.53;8391675;28;20055;-75
2022/07/10 07:48:35;;;;;;;6.53;1.42;;;;;;;15.35;66.28;99397.81;8420872;28;20101;-74
2022/07/10 07:52:36;;;;;;;6.85;0.93;;;;;;;15.56;65.81;99404.06;8420130;28;20108;-74
2022/07/10 07:56:37;;;;;;;6.65;1.33;;;;;;;15.48;65.15;99406.84;8428142;28;20047;-75
2022/07/10 08:00:38;;;;;;;4.45;0.90;;;;;;;15.36;65.27;99404.84;8420176;28;20052;-75
2022/07/10 08:04:39;;;;;;;5.72;0.85;;;;;;;15.27;66.04;99409.56;8355544;28;20127;-74
2022/07/10 08:08:40;;;;;;;8.85;1.50;;;;;;;15.51;66.07;99401.56;8357859;28;20053;-74
2022/07/10 08:12:48;;;;;;;11.40;1.13;;;;;;;15.97;64.56;99402.38;8357060;28;20083;-74
2022/07/10 08:16:50;;;;;;;8.23;1.20;;;;;;;16.24;62.54;99401.75;8355484;28;20064;-74
2022/07/10 08:21:10;;;;;;;6.93;1.33;;;;;;;16.19;62.68;99403.91;8258213;28;20524;-76
2022/07/10 08:25:11;;;;;;;13.60;2.17;;;;;;;16.29;62.67;99401.53;8235201;28;20400;-75
2022/07/10 08:29:12;;;;;;;6.40;1.10;;;;;;;15.94;62.69;99397.63;8243654;28;20055;-74
2022/07/10 08:33:13;;;;;;;8.88;1.27;;;;;;;15.55;63.09;99397.03;8258589;28;20058;-74
2022/07/10 08:37:15;;;;;;;7.80;1.00;;;;;;;15.24;64.79;99412.94;8242668;28;20090;-74
2022/07/10 08:41:17;;;;;;;8.68;1.10;;;;;;;14.80;68.33;99420.59;8290134;28;20049;-74
2022/07/10 08:45:18;;;;;;;10.05;1.58;;;;;;;14.56;71.73;99420.41;8313115;28;20054;-75
2022/07/10 08:49:21;;;;;;;6.13;1.00;;;;;;;14.41;73.29;99423.69;8323463;28;20064;-76
2022/07/10 08:53:32;;;;;;;2.83;0.77;;;;;;;14.49;73.45;99422.81;8407973;28;20125;-75
2022/07/10 08:57:34;;;;;;;4.68;1.13;;;;;;;14.66;73.19;99420.03;8419598;28;20482;-74
2022/07/10 09:01:35;;;;;;;2.50;0.80;;;;;;;14.86;72.70;99423.16;8365954;28;20155;-74
2022/07/10 09:05:36;;;;;;;4.85;0.93;;;;;;;15.12;71.90;99415.63;8356551;28;20037;-75
2022/07/10 09:09:54;;;;;;;2.97;0.75;;;;;;;15.32;71.46;99414.81;8356774;28;20167;-74
2022/07/10 09:14:03;;;;;;;3.65;0.85;;;;;;;15.47;69.36;99416.94;8350264;28;20048;-76
2022/07/10 09:18:08;;;;;;;7.65;1.10;;;;;;;15.53;68.60;99410.19;8349632;28;20519;-73
2022/07/10 09:22:11;;;;;;;4.90;1.00;;;;;;;15.75;68.59;99411.75;8323581;28;20064;-74
2022/07/10 09:26:12;;;;;;;6.22;1.15;;;;;;;16.16;66.82;99410.03;8356736;28;20056;-74
2022/07/10 09:30:32;;;;;;;4.95;1.17;;;;;;;16.59;65.96;99398.63;8355311;28;20410;-75
2022/07/10 09:34:42;;;;;;;2.53;0.90;;;;;;;16.57;65.19;99392.69;8319626;28;20071;-76
2022/07/10 09:38:43;;;;;;;4.28;1.15;;;;;;;16.00;65.94;99399.00;8415101;28;20056;-73
2022/07/10 09:42:47;;;;;;;5.53;1.30;;;;;;;15.53;70.49;99404.75;8418009;28;20049;-74
2022/07/10 09:46:48;;;;;;;3.15;0.95;;;;;;;15.17;71.77;99412.69;8427299;28;20134;-75
2022/07/10 09:50:51;;;;;;;3.67;0.80;;;;;;;15.20;71.12;99406.59;8386165;28;20041;-74
2022/07/10 09:54:52;;;;;;;2.75;1.00;;;;;;;15.50;70.32;99405.38;8423007;28;20403;-76
2022/07/10 09:58:56;;;;;;;3.38;0.77;;;;;;;16.12;68.31;99401.75;8393693;28;20048;-74
2022/07/10 10:02:59;;;;;;;6.13;0.95;;;;;;;16.87;65.44;99385.88;8415170;28;20040;-75
2022/07/10 10:07:01;;;;;;;3.78;0.80;;;;;;;16.72;63.98;99392.03;8374589;28;20056;-75
2022/07/10 10:11:07;;;;;;;3.80;0.95;;;;;;;16.13;67.90;99403.31;8415159;28;20478;-75
2022/07/10 10:15:10;;;;;;;6.47;1.33;;;;;;;16.14;69.38;99404.91;8433257;28;20108;-74
2022/07/10 10:23:32;;;;;;;9.55;1.63;;;;;;;16.06;69.37;99405.81;8411936;28;20048;-75
2022/07/10 10:27:34;;;;;;;5.70;1.20;;;;;;;16.28;68.50;99391.78;8414634;28;20127;-76
2022/07/10 10:31:35;;;;;;;6.53;1.20;;;;;;;16.67;67.09;99397.72;8432255;28;20465;-75
2022/07/10 10:35:46;;;;;;;5.82;0.90;;;;;;;16.84;64.53;99398.28;8414416;28;20471;-76
2022/07/10 10:39:55;;;;;;;2.83;0.82;;;;;;;16.72;64.64;99394.75;8427502;28;20052;-76
2022/07/10 10:44:09;;;;;;;4.15;1.17;;;;;;;16.77;66.03;99391.78;8413983;28;20044;-74
2022/07/10 10:48:13;;;;;;;2.22;0.95;;;;;;;16.87;65.16;99375.75;8432381;28;20539;-76
2022/07/10 10:52:15;;;;;;;6.45;0.85;;;;;;;16.91;63.28;99386.78;8418429;28;20093;-74
2022/07/10 10:56:16;;;;;;;4.45;1.00;;;;;;;16.89;63.56;99399.97;8432299;28;20044;-74
2022/07/10 11:00:37;;;;;;;5.35;1.13;;;;;;;16.71;64.17;99393.16;8430353;28;20562;-74
2022/07/10 11:04:38;;;;;;;6.07;1.10;;;;;;;16.44;63.79;99400.84;8425527;28;20055;-74
2022/07/10 11:08:41;;;;;;;3.72;1.08;;;;;;;16.38;64.14;99391.34;8431389;28;20101;-75
2022/07/10 11:12:57;;;;;;;3.38;0.80;;;;;;;16.60;64.12;99397.50;8426326;28;20117;-74
2022/07/10 11:16:59;;;;;;;11.80;1.00;;;;;;;16.77;63.26;99397.25;8420971;28;20062;-74
2022/07/10 11:21:03;;;;;;;6.57;1.02;;;;;;;16.80;62.83;99391.13;8423227;28;20052;-74
2022/07/10 11:25:41;;;;;;;8.27;1.27;;;;;;;16.88;62.81;99384.72;8424881;28;20048;-73
2022/07/10 11:29:42;;;;;;;4.07;1.15;;;;;;;16.97;63.18;99379.97;8399091;28;20046;-73
2022/07/10 11:33:46;;;;;;;4.05;1.10;;;;;;;16.99;62.83;99383.13;8423717;28;20136;-74
2022/07/10 11:37:51;;;;;;;6.80;0.93;;;;;;;17.14;61.40;99387.88;8373580;28;20154;-73
2022/07/10 11:41:53;;;;;;;3.00;0.82;;;;;;;17.45;60.98;99378.22;8425782;28;20051;-74
2022/07/10 11:45:59;;;;;;;4.53;1.00;;;;;;;17.54;59.86;99381.59;8419770;28;20040;-74
2022/07/10 11:50:00;;;;;;;3.97;0.85;;;;;;;17.75;59.71;99381.41;8428930;28;20058;-74
2022/07/10 11:54:02;;;;;;;2.45;0.90;;;;;;;17.78;58.08;99376.03;8417270;28;20149;-78
2022/07/10 11:58:19;;;;;;;4.32;1.00;;;;;;;18.05;58.10;99375.19;8415158;28;20132;-76
2022/07/10 12:02:22;;;;;;;5.80;1.27;;;;;;;18.11;57.13;99384.72;8420186;28;20048;-75
2022/07/10 12:06:24;;;;;;;3.45;0.85;;;;;;;17.84;58.24;99377.38;8385748;28;20083;-75
2022/07/10 12:10:29;;;;;;;6.30;1.10;;;;;;;17.58;59.41;99387.94;8418963;28;20048;-74
2022/07/10 12:14:31;;;;;;;4.38;0.85;;;;;;;17.47;60.16;99392.31;8369023;28;20122;-75
2022/07/10 12:18:34;;;;;;;8.50;1.13;;;;;;;17.50;59.95;99380.72;8411479;28;20467;-75
2022/07/10 12:22:37;;;;;;;4.75;1.17;;;;;;;17.49;58.76;99370.94;8365958;28;20041;-76
2022/07/10 12:26:41;;;;;;;5.82;1.20;;;;;;;17.42;59.58;99389.84;8414829;28;20052;-75
2022/07/10 12:30:49;;;;;;;4.00;0.90;;;;;;;17.20;57.78;99394.69;8414926;28;20044;-74
2022/07/10 12:34:53;;;;;;;4.35;1.10;;;;;;;16.85;57.83;99401.81;8418790;28;20044;-75
2022/07/10 12:38:57;;;;;;;5.78;1.23;;;;;;;16.51;57.45;99415.84;8386402;28;20051;-74
2022/07/10 12:43:06;;;;;;;4.88;1.10;;;;;;;16.35;58.16;99413.81;8394096;28;20507;-75
2022/07/10 12:47:14;;;;;;;5.10;1.30;;;;;;;16.06;57.78;99422.16;8405966;28;20045;-75
2022/07/10 12:51:20;;;;;;;8.13;1.40;;;;;;;15.98;58.73;99421.13;8404070;28;20060;-74
2022/07/10 12:55:23;;;;;;;7.13;1.40;;;;;;;15.95;58.94;99426.44;8411937;28;20142;-74
2022/07/10 12:59:24;;;;;;;6.30;0.85;;;;;;;15.97;59.32;99416.00;8372462;28;20050;-74
2022/07/10 13:03:45;;;;;;;6.47;1.55;;;;;;;16.01;58.62;99419.66;8399686;28;20055;-73
2022/07/10 13:07:46;;;;;;;5.10;0.82;;;;;;;16.05;57.29;99426.03;8270013;28;20060;-73
2022/07/10 13:11:48;;;;;;;4.90;1.20;;;;;;;16.16;58.30;99432.63;8321726;28;20057;-74
2022/07/10 13:15:50;;;;;;;3.53;1.15;;;;;;;16.42;58.60;99419.50;8270792;28;20041;-74
2022/07/10 13:19:52;;;;;;;5.90;1.17;;;;;;;16.60;57.41;99430.22;8286712;28;20046;-74
2022/07/10 13:23:54;;;;;;;5.60;1.58;;;;;;;16.76;57.33;99422.94;8289372;28;20101;-73
2022/07/10 13:27:55;;;;;;;5.95;1.10;;;;;;;16.98;57.10;99419.72;8321295;28;20492;-73
2022/07/10 13:31:57;;;;;;;5.78;1.50;;;;;;;17.42;56.38;99411.66;8320552;28;20053;-75
2022/07/10 13:36:03;;;;;;;4.40;1.00;;;;;;;18.03;55.25;99402.06;8328560;28;20076;-74
2022/07/10 13:40:04;;;;;;;6.15;1.50;;;;;;;18.89;52.35;99397.56;8379965;28;20051;-74
2022/07/10 13:44:05;;;;;;;4.28;1.00;;;;;;;20.42;47.95;99389.66;8429329;28;20032;-75
2022/07/10 13:48:06;;;;;;;8.60;1.40;;;;;;;21.72;44.45;99378.94;8426336;28;20094;-74
2022/07/10 13:52:08;;;;;;;3.80;0.90;;;;;;;23.48;42.13;99384.22;8391682;28;20048;-74
2022/07/10 13:56:10;;;;;;;4.10;0.98;;;;;;;22.07;43.53;99373.81;8431758;28;20051;-74
2022/07/10 14:00:12;;;;;;;3.50;0.95;;;;;;;22.38;43.60;99377.22;8431915;28;20044;-73
2022/07/10 14:04:14;;;;;;;3.95;1.10;;;;;;;21.17;45.40;99380.59;8432178;28;20040;-75
2022/07/10 14:08:15;;;;;;;4.63;1.25;;;;;;;20.74;47.28;99384.66;8429804;28;20130;-74
2022/07/10 14:12:16;;;;;;;4.57;1.15;;;;;;;21.87;44.55;99391.66;8423028;28;20044;-75
2022/07/10 14:16:17;;;;;;;6.15;1.08;;;;;;;21.68;45.15;99383.59;8425814;28;20059;-74
2022/07/10 14:20:18;;;;;;;3.95;1.02;;;;;;;22.45;41.80;99382.78;8422386;28;20072;-74
2022/07/10 14:24:19;;;;;;;3.13;0.90;;;;;;;21.59;43.29;99380.34;8430767;28;20048;-74
2022/07/10 14:28:22;;;;;;;5.65;1.45;;;;;;;20.94;44.39;99391.63;8413980;28;20048;-74
2022/07/10 14:32:26;;;;;;;5.90;1.50;;;;;;;20.99;44.29;99391.34;8423864;28;20422;-74
2022/07/10 14:36:27;;;;;;;8.82;1.85;;;;;;;20.54;44.54;99403.97;8418257;28;20086;-74
2022/07/10 14:40:28;;;;;;;4.30;1.30;;;;;;;20.02;46.30;99414.78;8423729;28;20404;-75
2022/07/10 14:44:29;;;;;;;4.90;1.30;;;;;;;19.59;47.40;99413.97;8332357;28;20419;-73
2022/07/10 14:48:30;;;;;;;7.68;1.52;;;;;;;19.12;48.48;99410.59;8422368;28;20048;-74
2022/07/10 14:52:33;;;;;;;5.93;1.40;;;;;;;18.86;50.43;99420.19;8426289;28;20059;-73
2022/07/10 14:56:34;;;;;;;6.65;1.30;;;;;;;18.66;51.64;99426.75;8430037;28;20131;-74
2022/07/10 15:00:35;;;;;;;6.88;1.33;;;;;;;18.71;51.76;99412.00;8414023;28;20086;-74
2022/07/10 15:04:36;;;;;;;8.35;1.33;;;;;;;19.08;50.71;99417.94;8431028;28;20522;-74
2022/07/10 15:08:37;;;;;;;3.30;1.02;;;;;;;19.15;49.65;99415.34;8411388;28;20055;-73
2022/07/10 15:12:39;;;;;;;6.82;1.38;;;;;;;18.94;50.73;99419.19;8384095;28;20052;-73
2022/07/10 15:16:40;;;;;;;4.38;1.23;;;;;;;19.77;47.83;99415.09;8426941;28;20437;-74
2022/07/10 15:20:41;;;;;;;5.30;1.15;;;;;;;20.42;46.27;99406.91;8411169;28;20128;-75
2022/07/10 15:24:43;;;;;;;4.45;1.10;;;;;;;23.53;40.54;99409.47;8421225;28;20048;-73
2022/07/10 15:28:47;;;;;;;7.40;1.48;;;;;;;25.16;37.97;99414.38;8408894;28;20369;-75
2022/07/10 15:32:49;;;;;;;3.45;1.20;;;;;;;23.42;39.61;99405.06;8333214;28;20060;-75
2022/07/10 15:36:51;;;;;;;3.88;1.20;;;;;;;23.02;41.42;99412.31;8426059;28;20040;-75
2022/07/10 15:40:52;;;;;;;6.35;1.23;;;;;;;22.09;43.66;99409.19;8421885;28;20040;-75
2022/07/10 15:44:54;;;;;;;3.63;1.25;;;;;;;21.08;45.66;99416.56;8416993;28;20044;-75
2022/07/10 15:48:55;;;;;;;6.43;1.27;;;;;;;20.27;48.22;99410.53;8372648;28;20075;-74
2022/07/10 15:52:57;;;;;;;6.38;1.33;;;;;;;19.49;48.91;99408.28;8368106;28;20048;-76
2022/07/10 15:56:59;;;;;;;9.68;1.30;;;;;;;19.16;49.76;99411.47;8419339;28;20376;-75
2022/07/10 16:01:05;;;;;;;4.53;1.40;;;;;;;18.82;50.01;99402.88;8427793;28;20039;-76
2022/07/10 16:05:07;;;;;;;5.63;1.10;;;;;;;18.52;50.55;99409.94;8421278;28;20044;-76
2022/07/10 16:09:09;;;;;;;4.85;1.08;;;;;;;18.39;51.01;99413.94;8394958;28;20480;-75
2022/07/10 16:13:11;;;;;;;8.75;1.30;;;;;;;18.33;51.99;99412.59;8414084;28;20045;-75
2022/07/10 16:17:12;;;;;;;4.47;1.50;;;;;;;18.29;52.15;99420.72;8416893;28;20426;-74
2022/07/10 16:21:14;;;;;;;6.60;1.05;;;;;;;18.17;53.12;99414.53;8427862;28;20067;-75
2022/07/10 16:29:35;;;;;;;4.95;1.27;;;;;;;17.87;52.83;99420.38;8407140;28;20396;-75
2022/07/10 16:33:38;;;;;;;4.10;1.20;;;;;;;17.73;54.59;99430.94;8412906;28;20055;-75
2022/07/10 16:37:40;;;;;;;4.15;1.20;;;;;;;17.56;54.58;99433.91;8418273;28;20046;-79
2022/07/10 16:41:42;;;;;;;8.32;1.60;;;;;;;17.45;55.28;99427.38;8424102;28;20044;-75
2022/07/10 16:45:44;;;;;;;3.67;1.10;;;;;;;17.42;54.60;99428.84;8411130;28;20048;-74
2022/07/10 16:49:45;;;;;;;4.68;1.40;;;;;;;17.50;55.36;99429.88;8356858;28;20047;-75
2022/07/10 16:53:47;;;;;;;7.28;1.52;;;;;;;17.58;54.78;99426.19;8405926;28;20423;-75
2022/07/10 16:57:50;;;;;;;5.45;1.60;;;;;;;17.68;54.38;99426.50;8405749;28;20518;-75
2022/07/10 17:01:51;;;;;;;5.22;1.52;;;;;;;17.84;54.57;99429.28;8410393;28;20048;-75
2022/07/10 17:05:53;;;;;;;5.07;1.20;;;;;;;17.92;54.05;99420.16;8421915;28;20051;-75
2022/07/10 17:09:54;;;;;;;6.15;1.40;;;;;;;17.93;53.53;99420.91;8425855;28;20145;-74
2022/07/10 17:13:57;;;;;;;6.30;1.27;;;;;;;17.77;52.81;99429.09;8391408;28;20461;-74
2022/07/10 17:17:58;;;;;;;8.13;1.60;;;;;;;17.76;52.32;99427.53;8423316;28;20173;-75
2022/07/10 17:21:59;;;;;;;8.30;1.23;;;;;;;17.62;52.67;99432.56;8425353;28;20045;-75
2022/07/10 17:26:04;;;;;;;9.10;1.45;;;;;;;17.50;53.54;99435.31;8399889;28;20063;-74
2022/07/10 17:30:05;;;;;;;5.30;0.98;;;;;;;17.46;53.79;99431.69;8420412;28;20052;-74
2022/07/10 17:34:07;;;;;;;6.35;1.30;;;;;;;17.44;54.36;99437.50;8412526;28;20055;-75
2022/07/10 17:38:08;;;;;;;9.98;1.50;;;;;;;17.43;54.91;99435.91;8421845;28;20066;-75
2022/07/10 17:42:09;;;;;;;10.20;1.55;;;;;;;17.37;54.76;99437.28;8421891;28;20036;-75
2022/07/10 17:46:11;;;;;;;6.38;1.10;;;;;;;17.28;55.20;99429.25;8385572;28;20040;-75
2022/07/10 17:50:13;;;;;;;7.35;1.40;;;;;;;17.15;55.81;99435.84;8423355;28;20101;-76
2022/07/10 17:54:14;;;;;;;5.97;1.38;;;;;;;17.05;56.19;99447.25;8420222;28;20105;-74
2022/07/10 17:58:15;;;;;;;3.45;1.05;;;;;;;16.95;56.95;99436.78;8423868;28;20143;-75
2022/07/10 18:02:16;;;;;;;9.15;1.58;;;;;;;16.93;57.27;99439.06;8420471;28;20139;-74
2022/07/10 18:06:17;;;;;;;3.65;1.30;;;;;;;16.85;58.36;99453.63;8385877;28;20048;-75
2022/07/10 18:10:19;;;;;;;8.35;1.42;;;;;;;16.77;59.28;99457.25;8421637;28;20055;-76
2022/07/10 18:14:20;;;;;;;5.03;1.23;;;;;;;16.69;60.23;99460.91;8422825;28;20052;-75
2022/07/10 18:18:21;;;;;;;7.32;1.77;;;;;;;16.60;60.51;99458.25;8419766;28;20095;-75
2022/07/10 18:22:22;;;;;;;4.00;1.15;;;;;;;16.55;61.08;99465.88;8414849;28;20511;-76
2022/07/10 18:26:23;;;;;;;5.20;1.35;;;;;;;16.47;61.89;99465.63;8428893;28;20119;-76
2022/07/10 18:30:24;;;;;;;10.43;1.60;;;;;;;16.40;62.33;99459.91;8427784;28;20051;-75
2022/07/10 18:34:29;;;;;;;6.50;1.95;;;;;;;16.34;62.26;99464.00;8430691;28;20527;-75
2022/07/10 18:38:32;;;;;;;11.88;1.77;;;;;;;16.27;63.03;99466.50;8417999;28;20458;-75
2022/07/10 18:42:34;;;;;;;7.53;1.20;;;;;;;16.19;63.89;99470.09;8431159;28;20403;-75
2022/07/10 18:46:35;;;;;;;8.15;1.70;;;;;;;16.08;64.62;99471.66;8425050;28;20466;-75
2022/07/10 18:50:36;;;;;;;8.73;1.52;;;;;;;15.99;64.93;99465.50;8408718;28;20044;-75
2022/07/10 18:54:37;;;;;;;7.05;1.55;;;;;;;15.93;65.64;99461.38;8425691;28;20044;-76
2022/07/10 18:58:38;;;;;;;6.32;1.50;;;;;;;15.88;66.10;99464.31;8387021;28;20404;-75
2022/07/10 19:02:39;;;;;;;12.50;1.58;;;;;;;15.86;66.74;99466.59;8375940;28;20040;-75
2022/07/10 19:06:41;;;;;;;6.38;1.70;;;;;;;15.84;67.39;99479.75;8425985;28;20039;-76
2022/07/10 19:10:42;;;;;;;5.97;1.50;;;;;;;15.75;67.30;99493.44;8430243;28;20079;-76